Seinäjoki, Suomi

28. huhtikuuta 2017 klo 15:13 (EEST) (GMT +0300)
Kasperi Seinjoki | | Change Station

Kork 182 ft 62.77 °N, 22.87 °E | Updated 48 seconds ago

Täysin pilvistä
Täysin pilvistä
39.9 °F
Tuntuu kuin 40 °F
N
2.0
Tuuli Suunnaltaan vaihteleva Tuuli ilmansuunnasta Pohjoisen ja luoteen välinen
Gusts 5.0 mph

Tänään
Korkea -- | Matala -- °F
--% Sateen mahd.
Eilen
Korkea -- | Matala -- °F
Precip. -- tuumaa
Ilmanpaine 30.21 tuumaa
Näkyvyys 6.2 mailia
Pilviä Harvoja pilviä 2100 ft
Pilvistä 3300 ft
Täysin pilvistä 5500 ft
Tuulen hyytävyys 40 °F
Kastepiste 34 °F
Ilmankosteus 78%
Sademäärä 0.00 tuumaa
Lumensyvyys Ei saatavilla
5:19 AM 9:34 PM
Kasvava sirppi, 6% visible
METAR EFSI 281150Z AUTO 36005KT 340V040 9999 -SHRA FEW021 BKN033 OVC055 02/M00 Q1023
Ilmanpaine 30.21 tuumaa
Näkyvyys 6.2 mailia
Pilviä Harvoja pilviä 2100 ft
Pilvistä 3300 ft
Täysin pilvistä 5500 ft
Tuulen hyytävyys 40 °F
Kastepiste 34 °F
Ilmankosteus 78%
Sademäärä 0.00 tuumaa
Lumensyvyys Ei saatavilla
5:19 AM 9:34 PM
Kasvava sirppi, 6% visible
METAR EFSI 281150Z AUTO 36005KT 340V040 9999 -SHRA FEW021 BKN033 OVC055 02/M00 Q1023

Get Severe Weather Alerts

Thanks for signing up!

Be on the lookout for a verification email in your inbox.

You'll start receiving the daily forecast at 8 AM.

×

10-Day Weather Forecast

×

Almanac

Tähtitiede

Apr. 28, 2017 Nousuaika Laskuaika
Valoisa aika
Porvarillinen hämärä
Nauttinen hämärä
Astronominen hämärä
Kuu
Näkyvän valon pituus
Päivän pituus
Tomorrow will be .
, % of the Moon is Illuminated

Tämän päivän ennätykset

Country Highs Country Lows

Community

WunderPhotos

WunderBlog® & News

Nearby

Ilmanlaatu

  Ilmanlaatu AQ Index Pollutant
Not available.

Lumensyvyys

Station Depth Korkeus

Maanjäristysaktiivisuus

Paikkakunta Distance Mag. Time & Date
Minimum magnitude displayed is 2.5.

Coastal Water Temperatures

Paikka Lämpötila

Stations

Lähimmät sääasemat

Aseman sijainti Lämpötila Tuulen hyytävyys Kastepiste Ilmankosteus Tuuli Precip. Kork Päivitetty Tyyppi